sensor_id;sensor_type;location;lat;lon;timestamp;P1;durP1;ratioP1;P2;durP2;ratioP2
31732;SDS011;18312;51.486;7.144;2024-03-02T00:00:39;1238.70;;;999.90;;
31732;SDS011;18312;51.486;7.144;2024-03-02T00:03:08;1241.68;;;999.90;;
31732;SDS011;18312;51.486;7.144;2024-03-02T00:05:35;1235.20;;;999.90;;
31732;SDS011;18312;51.486;7.144;2024-03-02T00:08:10;1238.05;;;999.90;;
31732;SDS011;18312;51.486;7.144;2024-03-02T00:10:39;1236.25;;;999.90;;
31732;SDS011;18312;51.486;7.144;2024-03-02T00:13:09;1233.47;;;999.90;;
31732;SDS011;18312;51.486;7.144;2024-03-02T00:15:42;1233.13;;;999.90;;
31732;SDS011;18312;51.486;7.144;2024-03-02T00:18:13;1235.68;;;999.90;;
31732;SDS011;18312;51.486;7.144;2024-03-02T00:21:02;1237.38;;;999.90;;
31732;SDS011;18312;51.486;7.144;2024-03-02T00:23:34;1232.85;;;999.90;;
31732;SDS011;18312;51.486;7.144;2024-03-02T00:26:02;1237.05;;;999.90;;
31732;SDS011;18312;51.486;7.144;2024-03-02T00:28:30;1240.43;;;999.90;;
31732;SDS011;18312;51.486;7.144;2024-03-02T00:31:05;1232.90;;;999.90;;
31732;SDS011;18312;51.486;7.144;2024-03-02T00:36:09;1234.45;;;999.90;;
31732;SDS011;18312;51.486;7.144;2024-03-02T00:38:44;1233.05;;;999.90;;
31732;SDS011;18312;51.486;7.144;2024-03-02T00:41:19;1237.37;;;999.90;;
31732;SDS011;18312;51.486;7.144;2024-03-02T00:44:01;1233.35;;;999.90;;
31732;SDS011;18312;51.486;7.144;2024-03-02T00:46:40;1235.72;;;999.90;;
31732;SDS011;18312;51.486;7.144;2024-03-02T00:49:11;1236.25;;;999.90;;
31732;SDS011;18312;51.486;7.144;2024-03-02T00:51:50;1234.73;;;999.90;;
31732;SDS011;18312;51.486;7.144;2024-03-02T00:54:19;1236.53;;;999.90;;
31732;SDS011;18312;51.486;7.144;2024-03-02T00:56:51;1236.97;;;999.90;;
31732;SDS011;18312;51.486;7.144;2024-03-02T00:59:25;1236.27;;;999.90;;
31732;SDS011;18312;51.486;7.144;2024-03-02T01:01:58;1236.68;;;999.90;;
31732;SDS011;18312;51.486;7.144;2024-03-02T01:04:27;1235.28;;;999.90;;
31732;SDS011;18312;51.486;7.144;2024-03-02T01:07:00;1235.65;;;999.90;;
31732;SDS011;18312;51.486;7.144;2024-03-02T01:09:28;1239.60;;;999.90;;
31732;SDS011;18312;51.486;7.144;2024-03-02T01:12:01;1241.03;;;999.90;;
31732;SDS011;18312;51.486;7.144;2024-03-02T01:14:28;1244.43;;;999.90;;
31732;SDS011;18312;51.486;7.144;2024-03-02T01:17:00;1237.97;;;999.90;;
31732;SDS011;18312;51.486;7.144;2024-03-02T01:19:32;1243.30;;;999.90;;
31732;SDS011;18312;51.486;7.144;2024-03-02T01:21:59;1241.00;;;999.90;;
31732;SDS011;18312;51.486;7.144;2024-03-02T01:24:29;1241.97;;;999.90;;
31732;SDS011;18312;51.486;7.144;2024-03-02T01:26:58;1240.82;;;999.90;;
31732;SDS011;18312;51.486;7.144;2024-03-02T01:29:26;1235.97;;;999.90;;
31732;SDS011;18312;51.486;7.144;2024-03-02T01:31:53;1240.78;;;999.90;;
31732;SDS011;18312;51.486;7.144;2024-03-02T01:34:22;1244.97;;;999.90;;
31732;SDS011;18312;51.486;7.144;2024-03-02T01:36:57;1245.68;;;999.90;;
31732;SDS011;18312;51.486;7.144;2024-03-02T01:39:28;1248.47;;;999.90;;
31732;SDS011;18312;51.486;7.144;2024-03-02T01:41:55;1251.43;;;999.90;;
31732;SDS011;18312;51.486;7.144;2024-03-02T01:44:22;1252.03;;;999.90;;
31732;SDS011;18312;51.486;7.144;2024-03-02T01:46:49;1250.35;;;999.90;;
31732;SDS011;18312;51.486;7.144;2024-03-02T01:49:17;1248.05;;;999.90;;
31732;SDS011;18312;51.486;7.144;2024-03-02T01:51:48;1250.70;;;999.90;;
31732;SDS011;18312;51.486;7.144;2024-03-02T01:54:19;1249.03;;;999.90;;
31732;SDS011;18312;51.486;7.144;2024-03-02T01:56:52;1252.22;;;999.90;;
31732;SDS011;18312;51.486;7.144;2024-03-02T01:59:19;1254.38;;;999.90;;
31732;SDS011;18312;51.486;7.144;2024-03-02T02:01:47;1255.75;;;999.90;;
31732;SDS011;18312;51.486;7.144;2024-03-02T02:04:13;1255.65;;;999.90;;
31732;SDS011;18312;51.486;7.144;2024-03-02T02:06:40;1254.13;;;999.90;;
31732;SDS011;18312;51.486;7.144;2024-03-02T02:09:08;1253.28;;;999.90;;
31732;SDS011;18312;51.486;7.144;2024-03-02T02:11:35;1252.38;;;999.90;;
31732;SDS011;18312;51.486;7.144;2024-03-02T02:14:02;1252.40;;;999.90;;
31732;SDS011;18312;51.486;7.144;2024-03-02T02:16:28;1251.78;;;999.90;;
31732;SDS011;18312;51.486;7.144;2024-03-02T02:18:55;1252.57;;;999.90;;
31732;SDS011;18312;51.486;7.144;2024-03-02T02:21:23;1249.20;;;999.90;;
31732;SDS011;18312;51.486;7.144;2024-03-02T02:23:50;1247.28;;;999.90;;
31732;SDS011;18312;51.486;7.144;2024-03-02T02:26:17;1249.65;;;999.90;;
31732;SDS011;18312;51.486;7.144;2024-03-02T02:28:44;1248.85;;;999.90;;
31732;SDS011;18312;51.486;7.144;2024-03-02T02:31:12;1251.72;;;999.90;;
31732;SDS011;18312;51.486;7.144;2024-03-02T02:33:39;1247.40;;;999.90;;
31732;SDS011;18312;51.486;7.144;2024-03-02T02:36:06;1253.63;;;999.90;;
31732;SDS011;18312;51.486;7.144;2024-03-02T02:38:34;1248.43;;;999.90;;
31732;SDS011;18312;51.486;7.144;2024-03-02T02:41:04;1250.90;;;999.90;;
31732;SDS011;18312;51.486;7.144;2024-03-02T02:43:30;1247.82;;;999.90;;
31732;SDS011;18312;51.486;7.144;2024-03-02T02:45:57;1252.93;;;999.90;;
31732;SDS011;18312;51.486;7.144;2024-03-02T02:48:24;1253.43;;;999.90;;
31732;SDS011;18312;51.486;7.144;2024-03-02T02:50:51;1251.47;;;999.90;;
31732;SDS011;18312;51.486;7.144;2024-03-02T02:53:17;1253.22;;;999.90;;
31732;SDS011;18312;51.486;7.144;2024-03-02T02:55:45;1251.73;;;999.90;;
31732;SDS011;18312;51.486;7.144;2024-03-02T02:58:12;1253.07;;;999.90;;
31732;SDS011;18312;51.486;7.144;2024-03-02T03:00:39;1248.60;;;999.90;;
31732;SDS011;18312;51.486;7.144;2024-03-02T03:03:06;1248.13;;;999.90;;
31732;SDS011;18312;51.486;7.144;2024-03-02T03:05:33;1251.20;;;999.90;;
31732;SDS011;18312;51.486;7.144;2024-03-02T03:08:00;1250.97;;;999.90;;
31732;SDS011;18312;51.486;7.144;2024-03-02T03:10:27;1254.55;;;999.90;;
31732;SDS011;18312;51.486;7.144;2024-03-02T03:12:55;1252.18;;;999.90;;
31732;SDS011;18312;51.486;7.144;2024-03-02T03:15:22;1256.20;;;999.90;;
31732;SDS011;18312;51.486;7.144;2024-03-02T03:17:49;1253.77;;;999.90;;
31732;SDS011;18312;51.486;7.144;2024-03-02T03:20:16;1255.85;;;999.90;;
31732;SDS011;18312;51.486;7.144;2024-03-02T03:22:42;1254.13;;;999.90;;
31732;SDS011;18312;51.486;7.144;2024-03-02T03:25:09;1252.47;;;999.90;;
31732;SDS011;18312;51.486;7.144;2024-03-02T03:27:36;1253.93;;;999.90;;
31732;SDS011;18312;51.486;7.144;2024-03-02T03:30:04;1256.32;;;999.90;;
31732;SDS011;18312;51.486;7.144;2024-03-02T03:32:32;1257.97;;;999.90;;
31732;SDS011;18312;51.486;7.144;2024-03-02T03:34:58;1259.05;;;999.90;;
31732;SDS011;18312;51.486;7.144;2024-03-02T03:37:25;1261.38;;;999.90;;
31732;SDS011;18312;51.486;7.144;2024-03-02T03:39:57;1259.70;;;999.90;;
31732;SDS011;18312;51.486;7.144;2024-03-02T03:42:24;1260.40;;;999.90;;
31732;SDS011;18312;51.486;7.144;2024-03-02T03:44:51;1261.43;;;999.90;;
31732;SDS011;18312;51.486;7.144;2024-03-02T03:47:19;1262.63;;;999.90;;
31732;SDS011;18312;51.486;7.144;2024-03-02T03:49:46;1262.45;;;999.90;;
31732;SDS011;18312;51.486;7.144;2024-03-02T03:52:12;1258.63;;;999.90;;
31732;SDS011;18312;51.486;7.144;2024-03-02T03:54:39;1264.20;;;999.90;;
31732;SDS011;18312;51.486;7.144;2024-03-02T03:57:08;1261.07;;;999.90;;
31732;SDS011;18312;51.486;7.144;2024-03-02T03:59:34;1266.28;;;999.90;;
31732;SDS011;18312;51.486;7.144;2024-03-02T04:02:02;1260.47;;;999.90;;
31732;SDS011;18312;51.486;7.144;2024-03-02T04:04:30;1262.85;;;999.90;;
31732;SDS011;18312;51.486;7.144;2024-03-02T04:06:58;1260.63;;;999.90;;
31732;SDS011;18312;51.486;7.144;2024-03-02T04:09:25;1253.10;;;999.90;;
31732;SDS011;18312;51.486;7.144;2024-03-02T04:11:52;1258.00;;;999.90;;
31732;SDS011;18312;51.486;7.144;2024-03-02T04:14:19;1254.03;;;999.90;;
31732;SDS011;18312;51.486;7.144;2024-03-02T04:16:46;1252.40;;;999.90;;
31732;SDS011;18312;51.486;7.144;2024-03-02T04:19:12;1252.75;;;999.90;;
31732;SDS011;18312;51.486;7.144;2024-03-02T04:21:39;1253.90;;;999.90;;
31732;SDS011;18312;51.486;7.144;2024-03-02T04:24:06;1257.60;;;999.90;;
31732;SDS011;18312;51.486;7.144;2024-03-02T04:26:33;1258.20;;;999.90;;
31732;SDS011;18312;51.486;7.144;2024-03-02T04:29:00;1252.83;;;999.90;;
31732;SDS011;18312;51.486;7.144;2024-03-02T04:31:27;1252.60;;;999.90;;
31732;SDS011;18312;51.486;7.144;2024-03-02T04:33:53;1248.97;;;999.90;;
31732;SDS011;18312;51.486;7.144;2024-03-02T04:36:20;1255.05;;;999.90;;
31732;SDS011;18312;51.486;7.144;2024-03-02T04:38:48;1248.88;;;999.90;;
31732;SDS011;18312;51.486;7.144;2024-03-02T04:41:15;1251.30;;;999.90;;
31732;SDS011;18312;51.486;7.144;2024-03-02T04:43:42;1252.05;;;999.90;;
31732;SDS011;18312;51.486;7.144;2024-03-02T04:46:08;1254.60;;;999.90;;
31732;SDS011;18312;51.486;7.144;2024-03-02T04:48:35;1253.95;;;999.90;;
31732;SDS011;18312;51.486;7.144;2024-03-02T04:51:02;1250.93;;;999.90;;
31732;SDS011;18312;51.486;7.144;2024-03-02T04:53:29;1250.85;;;999.90;;
31732;SDS011;18312;51.486;7.144;2024-03-02T04:55:57;1246.10;;;999.90;;
31732;SDS011;18312;51.486;7.144;2024-03-02T04:58:45;1249.03;;;999.90;;
31732;SDS011;18312;51.486;7.144;2024-03-02T05:01:12;1248.18;;;999.90;;
31732;SDS011;18312;51.486;7.144;2024-03-02T05:03:38;1244.10;;;999.90;;
31732;SDS011;18312;51.486;7.144;2024-03-02T05:06:05;1241.82;;;999.90;;
31732;SDS011;18312;51.486;7.144;2024-03-02T05:08:33;1238.43;;;999.90;;
31732;SDS011;18312;51.486;7.144;2024-03-02T05:11:01;1240.53;;;999.90;;
31732;SDS011;18312;51.486;7.144;2024-03-02T05:13:42;1237.13;;;999.90;;
31732;SDS011;18312;51.486;7.144;2024-03-02T05:16:09;1239.25;;;999.90;;
31732;SDS011;18312;51.486;7.144;2024-03-02T05:18:37;1235.70;;;999.90;;
31732;SDS011;18312;51.486;7.144;2024-03-02T05:21:04;1236.55;;;999.90;;
31732;SDS011;18312;51.486;7.144;2024-03-02T05:23:31;1237.97;;;999.90;;
31732;SDS011;18312;51.486;7.144;2024-03-02T05:25:58;1235.88;;;999.90;;
31732;SDS011;18312;51.486;7.144;2024-03-02T05:28:26;1233.90;;;999.90;;
31732;SDS011;18312;51.486;7.144;2024-03-02T05:30:53;1237.32;;;999.90;;
31732;SDS011;18312;51.486;7.144;2024-03-02T05:33:20;1232.57;;;999.90;;
31732;SDS011;18312;51.486;7.144;2024-03-02T05:35:47;1232.40;;;999.90;;
31732;SDS011;18312;51.486;7.144;2024-03-02T05:38:15;1234.20;;;999.90;;
31732;SDS011;18312;51.486;7.144;2024-03-02T05:40:42;1229.85;;;999.90;;
31732;SDS011;18312;51.486;7.144;2024-03-02T05:43:08;1233.05;;;999.90;;
31732;SDS011;18312;51.486;7.144;2024-03-02T05:45:51;1232.65;;;999.90;;
31732;SDS011;18312;51.486;7.144;2024-03-02T05:48:17;1230.40;;;999.90;;
31732;SDS011;18312;51.486;7.144;2024-03-02T05:50:44;1229.95;;;999.90;;
31732;SDS011;18312;51.486;7.144;2024-03-02T05:53:11;1231.73;;;999.90;;
31732;SDS011;18312;51.486;7.144;2024-03-02T05:55:39;1233.25;;;999.90;;
31732;SDS011;18312;51.486;7.144;2024-03-02T05:58:06;1233.47;;;999.90;;
31732;SDS011;18312;51.486;7.144;2024-03-02T06:00:47;1232.70;;;999.90;;
31732;SDS011;18312;51.486;7.144;2024-03-02T06:03:15;1234.13;;;999.90;;
31732;SDS011;18312;51.486;7.144;2024-03-02T06:05:42;1229.95;;;999.90;;
31732;SDS011;18312;51.486;7.144;2024-03-02T06:08:09;1231.20;;;999.90;;
31732;SDS011;18312;51.486;7.144;2024-03-02T06:10:36;1230.97;;;999.90;;
31732;SDS011;18312;51.486;7.144;2024-03-02T06:13:03;1229.43;;;999.90;;
31732;SDS011;18312;51.486;7.144;2024-03-02T06:15:30;1232.50;;;999.90;;
31732;SDS011;18312;51.486;7.144;2024-03-02T06:17:56;1230.25;;;999.90;;
31732;SDS011;18312;51.486;7.144;2024-03-02T06:20:24;1230.28;;;999.90;;
31732;SDS011;18312;51.486;7.144;2024-03-02T06:22:52;1224.22;;;999.90;;
31732;SDS011;18312;51.486;7.144;2024-03-02T06:25:18;1227.05;;;999.90;;
31732;SDS011;18312;51.486;7.144;2024-03-02T06:27:45;1225.85;;;999.90;;
31732;SDS011;18312;51.486;7.144;2024-03-02T06:30:12;1222.95;;;999.90;;
31732;SDS011;18312;51.486;7.144;2024-03-02T06:32:39;1225.18;;;999.90;;
31732;SDS011;18312;51.486;7.144;2024-03-02T06:35:06;1222.35;;;999.90;;
31732;SDS011;18312;51.486;7.144;2024-03-02T06:37:36;1223.20;;;999.90;;
31732;SDS011;18312;51.486;7.144;2024-03-02T06:40:04;1222.03;;;999.90;;
31732;SDS011;18312;51.486;7.144;2024-03-02T06:42:32;1224.38;;;999.90;;
31732;SDS011;18312;51.486;7.144;2024-03-02T06:44:59;1221.45;;;999.90;;
31732;SDS011;18312;51.486;7.144;2024-03-02T06:47:27;1221.40;;;999.90;;
31732;SDS011;18312;51.486;7.144;2024-03-02T06:49:54;1220.32;;;999.90;;
31732;SDS011;18312;51.486;7.144;2024-03-02T06:52:22;1221.30;;;999.90;;
31732;SDS011;18312;51.486;7.144;2024-03-02T06:54:50;1220.07;;;999.90;;
31732;SDS011;18312;51.486;7.144;2024-03-02T06:57:17;1223.47;;;999.90;;
31732;SDS011;18312;51.486;7.144;2024-03-02T06:59:45;1223.00;;;999.90;;
31732;SDS011;18312;51.486;7.144;2024-03-02T07:02:12;1222.13;;;999.90;;
31732;SDS011;18312;51.486;7.144;2024-03-02T07:04:39;1222.32;;;999.90;;
31732;SDS011;18312;51.486;7.144;2024-03-02T07:07:06;1220.80;;;999.90;;
31732;SDS011;18312;51.486;7.144;2024-03-02T07:09:32;1222.90;;;999.90;;
31732;SDS011;18312;51.486;7.144;2024-03-02T07:12:02;1224.60;;;999.90;;
31732;SDS011;18312;51.486;7.144;2024-03-02T07:14:28;1226.57;;;999.90;;
31732;SDS011;18312;51.486;7.144;2024-03-02T07:17:09;1222.87;;;999.90;;
31732;SDS011;18312;51.486;7.144;2024-03-02T07:19:37;1224.18;;;999.90;;
31732;SDS011;18312;51.486;7.144;2024-03-02T07:22:05;1221.75;;;999.90;;
31732;SDS011;18312;51.486;7.144;2024-03-02T07:24:38;1226.60;;;999.90;;
31732;SDS011;18312;51.486;7.144;2024-03-02T07:27:09;1239.75;;;999.90;;
31732;SDS011;18312;51.486;7.144;2024-03-02T07:29:37;1258.70;;;999.90;;
31732;SDS011;18312;51.486;7.144;2024-03-02T07:32:05;1268.03;;;999.90;;
31732;SDS011;18312;51.486;7.144;2024-03-02T07:34:32;1272.13;;;999.90;;
31732;SDS011;18312;51.486;7.144;2024-03-02T07:36:59;1271.75;;;999.90;;
31732;SDS011;18312;51.486;7.144;2024-03-02T07:39:26;1276.40;;;999.90;;
31732;SDS011;18312;51.486;7.144;2024-03-02T07:41:53;1284.28;;;999.90;;
31732;SDS011;18312;51.486;7.144;2024-03-02T07:44:21;1295.63;;;999.90;;
31732;SDS011;18312;51.486;7.144;2024-03-02T07:46:48;1311.88;;;999.90;;
31732;SDS011;18312;51.486;7.144;2024-03-02T07:49:15;1319.03;;;999.90;;
31732;SDS011;18312;51.486;7.144;2024-03-02T07:51:42;1332.13;;;999.90;;
31732;SDS011;18312;51.486;7.144;2024-03-02T07:54:10;1350.05;;;999.90;;
31732;SDS011;18312;51.486;7.144;2024-03-02T07:56:36;1353.70;;;999.90;;
31732;SDS011;18312;51.486;7.144;2024-03-02T07:59:03;1361.68;;;999.90;;
31732;SDS011;18312;51.486;7.144;2024-03-02T08:01:32;1374.60;;;999.90;;
31732;SDS011;18312;51.486;7.144;2024-03-02T08:03:59;1375.50;;;999.90;;
31732;SDS011;18312;51.486;7.144;2024-03-02T08:06:28;1381.18;;;999.90;;
31732;SDS011;18312;51.486;7.144;2024-03-02T08:08:55;1385.28;;;999.90;;
31732;SDS011;18312;51.486;7.144;2024-03-02T08:11:22;1386.40;;;999.90;;
31732;SDS011;18312;51.486;7.144;2024-03-02T08:13:49;1396.43;;;999.90;;
31732;SDS011;18312;51.486;7.144;2024-03-02T08:16:17;1393.97;;;999.90;;
31732;SDS011;18312;51.486;7.144;2024-03-02T08:18:46;1390.30;;;999.90;;
31732;SDS011;18312;51.486;7.144;2024-03-02T08:21:13;1383.93;;;999.90;;
31732;SDS011;18312;51.486;7.144;2024-03-02T08:23:40;1383.93;;;999.90;;
31732;SDS011;18312;51.486;7.144;2024-03-02T08:26:08;1379.23;;;999.90;;
31732;SDS011;18312;51.486;7.144;2024-03-02T08:28:35;1371.30;;;999.90;;
31732;SDS011;18312;51.486;7.144;2024-03-02T08:31:02;1368.25;;;999.90;;
31732;SDS011;18312;51.486;7.144;2024-03-02T08:33:29;1363.10;;;999.90;;
31732;SDS011;18312;51.486;7.144;2024-03-02T08:36:00;1357.05;;;999.90;;
31732;SDS011;18312;51.486;7.144;2024-03-02T08:38:27;1349.68;;;999.90;;
31732;SDS011;18312;51.486;7.144;2024-03-02T08:40:55;1351.27;;;999.90;;
31732;SDS011;18312;51.486;7.144;2024-03-02T08:43:21;1354.72;;;999.90;;
31732;SDS011;18312;51.486;7.144;2024-03-02T08:45:48;1363.97;;;999.90;;
31732;SDS011;18312;51.486;7.144;2024-03-02T08:48:16;1366.38;;;999.90;;
31732;SDS011;18312;51.486;7.144;2024-03-02T08:50:42;1369.03;;;999.90;;
31732;SDS011;18312;51.486;7.144;2024-03-02T08:53:11;1366.47;;;999.90;;
31732;SDS011;18312;51.486;7.144;2024-03-02T08:55:37;1377.33;;;999.90;;
31732;SDS011;18312;51.486;7.144;2024-03-02T08:58:04;1370.68;;;999.90;;
31732;SDS011;18312;51.486;7.144;2024-03-02T09:00:31;1374.40;;;999.90;;
31732;SDS011;18312;51.486;7.144;2024-03-02T09:02:58;1361.75;;;999.90;;
31732;SDS011;18312;51.486;7.144;2024-03-02T09:05:25;1358.68;;;999.90;;
31732;SDS011;18312;51.486;7.144;2024-03-02T09:07:52;1357.57;;;999.90;;
31732;SDS011;18312;51.486;7.144;2024-03-02T09:10:20;1343.13;;;999.90;;
31732;SDS011;18312;51.486;7.144;2024-03-02T09:12:47;1339.65;;;999.90;;
31732;SDS011;18312;51.486;7.144;2024-03-02T09:15:14;1332.20;;;999.90;;
31732;SDS011;18312;51.486;7.144;2024-03-02T09:17:41;1334.68;;;999.90;;
31732;SDS011;18312;51.486;7.144;2024-03-02T09:20:08;1330.50;;;999.90;;
31732;SDS011;18312;51.486;7.144;2024-03-02T09:22:35;1330.53;;;999.90;;
31732;SDS011;18312;51.486;7.144;2024-03-02T09:25:02;1328.10;;;999.90;;
31732;SDS011;18312;51.486;7.144;2024-03-02T09:27:30;1326.88;;;999.90;;
31732;SDS011;18312;51.486;7.144;2024-03-02T09:29:57;1329.00;;;999.90;;
31732;SDS011;18312;51.486;7.144;2024-03-02T09:32:24;1324.83;;;999.90;;
31732;SDS011;18312;51.486;7.144;2024-03-02T09:34:50;1326.97;;;999.90;;
31732;SDS011;18312;51.486;7.144;2024-03-02T09:37:18;1321.07;;;999.90;;
31732;SDS011;18312;51.486;7.144;2024-03-02T09:39:45;1322.00;;;999.90;;
31732;SDS011;18312;51.486;7.144;2024-03-02T09:42:12;1322.15;;;999.90;;
31732;SDS011;18312;51.486;7.144;2024-03-02T09:44:40;1327.65;;;999.90;;
31732;SDS011;18312;51.486;7.144;2024-03-02T09:47:08;1327.85;;;999.90;;
31732;SDS011;18312;51.486;7.144;2024-03-02T09:49:35;1328.28;;;999.90;;
31732;SDS011;18312;51.486;7.144;2024-03-02T09:52:02;1334.25;;;999.90;;
31732;SDS011;18312;51.486;7.144;2024-03-02T09:54:31;1328.40;;;999.90;;
31732;SDS011;18312;51.486;7.144;2024-03-02T09:56:58;1344.50;;;999.90;;
31732;SDS011;18312;51.486;7.144;2024-03-02T09:59:26;1342.30;;;999.90;;
31732;SDS011;18312;51.486;7.144;2024-03-02T10:01:58;1329.17;;;999.90;;
31732;SDS011;18312;51.486;7.144;2024-03-02T10:04:26;1335.13;;;999.90;;
31732;SDS011;18312;51.486;7.144;2024-03-02T10:07:08;1334.18;;;999.90;;
31732;SDS011;18312;51.486;7.144;2024-03-02T10:09:37;1334.15;;;999.90;;
31732;SDS011;18312;51.486;7.144;2024-03-02T10:12:04;1333.32;;;999.90;;
31732;SDS011;18312;51.486;7.144;2024-03-02T10:14:31;1337.03;;;999.90;;
31732;SDS011;18312;51.486;7.144;2024-03-02T10:17:02;1333.55;;;999.90;;
31732;SDS011;18312;51.486;7.144;2024-03-02T10:19:30;1340.47;;;999.90;;
31732;SDS011;18312;51.486;7.144;2024-03-02T10:21:58;1328.13;;;999.90;;
31732;SDS011;18312;51.486;7.144;2024-03-02T10:24:25;1330.63;;;999.90;;
31732;SDS011;18312;51.486;7.144;2024-03-02T10:26:52;1333.47;;;999.90;;
31732;SDS011;18312;51.486;7.144;2024-03-02T10:29:19;1336.60;;;999.90;;
31732;SDS011;18312;51.486;7.144;2024-03-02T10:31:46;1335.50;;;999.90;;
31732;SDS011;18312;51.486;7.144;2024-03-02T10:34:14;1341.43;;;999.90;;
31732;SDS011;18312;51.486;7.144;2024-03-02T10:36:42;1339.53;;;999.90;;
31732;SDS011;18312;51.486;7.144;2024-03-02T10:39:10;1340.97;;;999.90;;
31732;SDS011;18312;51.486;7.144;2024-03-02T10:41:40;1338.88;;;999.90;;
31732;SDS011;18312;51.486;7.144;2024-03-02T10:44:07;1338.07;;;999.90;;
31732;SDS011;18312;51.486;7.144;2024-03-02T10:46:35;1345.63;;;999.90;;
31732;SDS011;18312;51.486;7.144;2024-03-02T10:49:04;1344.18;;;999.90;;
31732;SDS011;18312;51.486;7.144;2024-03-02T10:51:33;1349.03;;;999.90;;
31732;SDS011;18312;51.486;7.144;2024-03-02T10:54:01;1354.95;;;999.90;;
31732;SDS011;18312;51.486;7.144;2024-03-02T10:56:29;1361.97;;;999.90;;
31732;SDS011;18312;51.486;7.144;2024-03-02T10:59:01;1365.15;;;999.90;;
31732;SDS011;18312;51.486;7.144;2024-03-02T11:01:31;1359.57;;;999.90;;
31732;SDS011;18312;51.486;7.144;2024-03-02T11:03:59;1372.47;;;999.90;;
31732;SDS011;18312;51.486;7.144;2024-03-02T11:06:29;1377.18;;;999.90;;
31732;SDS011;18312;51.486;7.144;2024-03-02T11:09:00;1371.37;;;999.90;;
31732;SDS011;18312;51.486;7.144;2024-03-02T11:11:34;1381.13;;;999.90;;
31732;SDS011;18312;51.486;7.144;2024-03-02T11:14:07;1374.77;;;999.90;;
31732;SDS011;18312;51.486;7.144;2024-03-02T11:16:39;1371.88;;;999.90;;
31732;SDS011;18312;51.486;7.144;2024-03-02T11:19:07;1383.93;;;999.90;;
31732;SDS011;18312;51.486;7.144;2024-03-02T11:21:37;1374.10;;;999.90;;
31732;SDS011;18312;51.486;7.144;2024-03-02T11:27:01;1378.50;;;999.90;;
31732;SDS011;18312;51.486;7.144;2024-03-02T11:29:45;1373.95;;;999.90;;
31732;SDS011;18312;51.486;7.144;2024-03-02T11:32:13;1375.05;;;999.90;;
31732;SDS011;18312;51.486;7.144;2024-03-02T11:34:41;1380.75;;;999.90;;
31732;SDS011;18312;51.486;7.144;2024-03-02T11:37:12;1381.63;;;999.90;;
31732;SDS011;18312;51.486;7.144;2024-03-02T11:39:40;1376.75;;;999.90;;
31732;SDS011;18312;51.486;7.144;2024-03-02T11:42:09;1384.65;;;999.90;;
31732;SDS011;18312;51.486;7.144;2024-03-02T11:44:39;1387.55;;;999.90;;
31732;SDS011;18312;51.486;7.144;2024-03-02T11:47:07;1385.43;;;999.90;;
31732;SDS011;18312;51.486;7.144;2024-03-02T11:49:37;1387.35;;;999.90;;
31732;SDS011;18312;51.486;7.144;2024-03-02T11:52:05;1390.03;;;999.90;;
31732;SDS011;18312;51.486;7.144;2024-03-02T11:54:33;1381.72;;;999.90;;
31732;SDS011;18312;51.486;7.144;2024-03-02T11:57:02;1386.80;;;999.90;;
31732;SDS011;18312;51.486;7.144;2024-03-02T11:59:30;1387.03;;;999.90;;
31732;SDS011;18312;51.486;7.144;2024-03-02T12:01:57;1382.95;;;999.90;;
31732;SDS011;18312;51.486;7.144;2024-03-02T12:04:26;1386.47;;;999.90;;
31732;SDS011;18312;51.486;7.144;2024-03-02T12:06:54;1388.33;;;999.90;;
31732;SDS011;18312;51.486;7.144;2024-03-02T12:09:24;1391.47;;;999.90;;
31732;SDS011;18312;51.486;7.144;2024-03-02T12:12:01;1389.03;;;999.90;;
31732;SDS011;18312;51.486;7.144;2024-03-02T12:14:30;1393.00;;;999.90;;
31732;SDS011;18312;51.486;7.144;2024-03-02T12:16:58;1394.65;;;999.90;;
31732;SDS011;18312;51.486;7.144;2024-03-02T12:19:25;1391.57;;;999.90;;
31732;SDS011;18312;51.486;7.144;2024-03-02T12:21:51;1393.57;;;999.90;;
31732;SDS011;18312;51.486;7.144;2024-03-02T12:24:19;1395.22;;;999.90;;
31732;SDS011;18312;51.486;7.144;2024-03-02T12:26:47;1395.32;;;999.90;;
31732;SDS011;18312;51.486;7.144;2024-03-02T12:29:16;1393.47;;;999.90;;
31732;SDS011;18312;51.486;7.144;2024-03-02T12:31:47;1401.18;;;999.90;;
31732;SDS011;18312;51.486;7.144;2024-03-02T12:34:15;1396.33;;;999.90;;
31732;SDS011;18312;51.486;7.144;2024-03-02T12:36:43;1394.57;;;999.90;;
31732;SDS011;18312;51.486;7.144;2024-03-02T12:39:12;1395.47;;;999.90;;
31732;SDS011;18312;51.486;7.144;2024-03-02T12:41:40;1398.80;;;999.90;;
31732;SDS011;18312;51.486;7.144;2024-03-02T12:44:08;1393.97;;;999.90;;
31732;SDS011;18312;51.486;7.144;2024-03-02T12:46:36;1393.80;;;999.90;;
31732;SDS011;18312;51.486;7.144;2024-03-02T12:49:08;1395.50;;;999.90;;
31732;SDS011;18312;51.486;7.144;2024-03-02T12:51:37;1398.93;;;999.90;;
31732;SDS011;18312;51.486;7.144;2024-03-02T12:54:05;1396.93;;;999.90;;
31732;SDS011;18312;51.486;7.144;2024-03-02T12:56:32;1391.75;;;999.90;;
31732;SDS011;18312;51.486;7.144;2024-03-02T12:59:00;1398.75;;;999.90;;
31732;SDS011;18312;51.486;7.144;2024-03-02T13:01:27;1397.13;;;999.90;;
31732;SDS011;18312;51.486;7.144;2024-03-02T13:03:55;1392.00;;;999.90;;
31732;SDS011;18312;51.486;7.144;2024-03-02T13:06:22;1395.05;;;999.90;;
31732;SDS011;18312;51.486;7.144;2024-03-02T13:08:52;1393.37;;;999.90;;
31732;SDS011;18312;51.486;7.144;2024-03-02T13:11:20;1395.00;;;999.90;;
31732;SDS011;18312;51.486;7.144;2024-03-02T13:13:48;1393.72;;;999.90;;
31732;SDS011;18312;51.486;7.144;2024-03-02T13:16:15;1394.90;;;999.90;;
31732;SDS011;18312;51.486;7.144;2024-03-02T13:18:44;1397.80;;;999.90;;
31732;SDS011;18312;51.486;7.144;2024-03-02T13:21:12;1399.90;;;999.90;;
31732;SDS011;18312;51.486;7.144;2024-03-02T13:23:39;1393.50;;;999.90;;
31732;SDS011;18312;51.486;7.144;2024-03-02T13:26:06;1400.38;;;999.90;;
31732;SDS011;18312;51.486;7.144;2024-03-02T13:28:35;1392.53;;;999.90;;
31732;SDS011;18312;51.486;7.144;2024-03-02T13:31:04;1395.68;;;999.90;;
31732;SDS011;18312;51.486;7.144;2024-03-02T13:33:31;1392.13;;;999.90;;
31732;SDS011;18312;51.486;7.144;2024-03-02T13:35:58;1389.68;;;999.90;;
31732;SDS011;18312;51.486;7.144;2024-03-02T13:38:28;1391.20;;;999.90;;
31732;SDS011;18312;51.486;7.144;2024-03-02T13:40:56;1389.93;;;999.90;;
31732;SDS011;18312;51.486;7.144;2024-03-02T13:43:23;1390.68;;;999.90;;
31732;SDS011;18312;51.486;7.144;2024-03-02T13:45:50;1387.10;;;999.90;;
31732;SDS011;18312;51.486;7.144;2024-03-02T13:48:18;1385.15;;;999.90;;
31732;SDS011;18312;51.486;7.144;2024-03-02T13:50:45;1385.82;;;999.90;;
31732;SDS011;18312;51.486;7.144;2024-03-02T13:53:12;1388.05;;;999.90;;
31732;SDS011;18312;51.486;7.144;2024-03-02T13:55:40;1383.73;;;999.90;;